Time;durP1;ratioP1;P1;durP2;ratioP2;P2;SDS_P1;SDS_P2;PMS_P1;PMS_P2;Temp;Humidity;BMP_temperature;BMP_pressure;BME280_temperature;BME280_humidity;BME280_pressure;Samples;Min_cycle;Max_cycle;Signal;HPM_P1;HPM_P2
2023/08/02 00:00:29;;;;;;;5.38;2.17;;;15.80;99.90;;;;;;5035637;28;20116;-71
2023/08/02 00:02:55;;;;;;;6.68;2.35;;;15.80;99.90;;;;;;5017652;28;20049;-71
2023/08/02 00:05:21;;;;;;;6.20;2.42;;;15.80;99.90;;;;;;5017061;28;20067;-71
2023/08/02 00:07:47;;;;;;;6.03;2.20;;;15.80;99.90;;;;;;5017296;28;20103;-71
2023/08/02 00:10:12;;;;;;;6.45;2.80;;;15.80;99.90;;;;;;5035333;28;20051;-71
2023/08/02 00:12:38;;;;;;;6.55;2.47;;;15.80;99.90;;;;;;5016525;28;20056;-71
2023/08/02 00:15:10;;;;;;;6.78;2.42;;;15.80;99.90;;;;;;5017338;28;20057;-72
2023/08/02 00:17:35;;;;;;;6.13;2.88;;;15.70;99.90;;;;;;5016937;28;20056;-71
2023/08/02 00:20:01;;;;;;;7.93;2.70;;;15.80;99.90;;;;;;5034490;28;20358;-71
2023/08/02 00:22:27;;;;;;;7.07;2.60;;;15.80;99.90;;;;;;5035015;28;20045;-71
2023/08/02 00:24:53;;;;;;;6.20;3.05;;;15.80;99.90;;;;;;5017344;28;20041;-71
2023/08/02 00:27:19;;;;;;;8.13;2.95;;;15.80;99.90;;;;;;5055357;28;20111;-71
2023/08/02 00:29:44;;;;;;;6.00;2.85;;;15.80;99.90;;;;;;5054735;28;20500;-71
2023/08/02 00:32:10;;;;;;;4.55;2.67;;;15.80;99.90;;;;;;5053900;28;20476;-71
2023/08/02 00:34:36;;;;;;;7.53;3.00;;;15.70;99.90;;;;;;5036602;28;20052;-71
2023/08/02 00:37:02;;;;;;;7.43;3.00;;;15.70;99.90;;;;;;5054937;28;20175;-71
2023/08/02 00:39:30;;;;;;;9.32;3.10;;;15.70;99.90;;;;;;5054064;28;20476;-71
2023/08/02 00:41:59;;;;;;;7.90;3.42;;;15.70;99.90;;;;;;5037095;28;20056;-71
2023/08/02 00:44:25;;;;;;;4.60;3.03;;;15.70;99.90;;;;;;5036536;28;20056;-71
2023/08/02 00:46:50;;;;;;;9.60;3.83;;;15.70;99.90;;;;;;5053198;28;20048;-71
2023/08/02 00:49:19;;;;;;;6.90;3.85;;;15.70;99.90;;;;;;5036795;28;20044;-71
2023/08/02 00:51:45;;;;;;;8.52;3.53;;;15.70;99.90;;;;;;5036365;28;20110;-71
2023/08/02 00:54:11;;;;;;;5.30;3.25;;;15.70;99.90;;;;;;5035846;28;20041;-72
2023/08/02 00:56:38;;;;;;;8.85;4.25;;;15.70;99.90;;;;;;5054149;28;20467;-71
2023/08/02 00:59:04;;;;;;;8.13;3.88;;;15.70;99.90;;;;;;5054377;28;20072;-72
2023/08/02 01:01:30;;;;;;;12.98;4.43;;;15.70;99.90;;;;;;5035376;28;20463;-71
2023/08/02 01:03:58;;;;;;;8.15;3.72;;;15.60;99.90;;;;;;5054475;28;20040;-71
2023/08/02 01:06:44;;;;;;;9.93;4.55;;;15.60;99.90;;;;;;5036435;28;20045;-71
2023/08/02 01:09:24;;;;;;;11.13;4.82;;;15.60;99.90;;;;;;5035782;28;20098;-71
2023/08/02 01:12:02;;;;;;;6.88;4.28;;;15.60;99.90;;;;;;5053778;28;20132;-71
2023/08/02 01:14:30;;;;;;;11.82;4.55;;;15.60;99.90;;;;;;5035053;28;20088;-71
2023/08/02 01:16:57;;;;;;;7.55;4.47;;;15.60;99.90;;;;;;5035489;28;20048;-71
2023/08/02 01:19:23;;;;;;;11.13;5.45;;;15.60;99.90;;;;;;5036310;28;20192;-71
2023/08/02 01:21:48;;;;;;;6.15;4.90;;;15.60;99.90;;;;;;5052991;28;20135;-71
2023/08/02 01:24:18;;;;;;;12.05;5.72;;;15.60;99.90;;;;;;5053690;28;20128;-71
2023/08/02 01:26:47;;;;;;;9.38;4.78;;;15.60;99.90;;;;;;5053256;28;20052;-71
2023/08/02 01:29:19;;;;;;;5.97;4.63;;;15.70;99.90;;;;;;5053265;28;20079;-71
2023/08/02 01:31:47;;;;;;;6.97;4.63;;;15.70;99.90;;;;;;5053567;28;20049;-71
2023/08/02 01:34:16;;;;;;;11.30;4.80;;;15.70;99.90;;;;;;5035589;28;20049;-71
2023/08/02 01:36:45;;;;;;;11.05;5.07;;;15.70;99.90;;;;;;5034776;28;20052;-71
2023/08/02 01:39:12;;;;;;;8.07;5.05;;;15.70;99.90;;;;;;5036425;28;20048;-71
2023/08/02 01:41:41;;;;;;;11.60;5.63;;;16.30;99.90;;;;;;5054356;28;20045;-72
2023/08/02 01:44:07;;;;;;;8.35;4.82;;;15.60;99.90;;;;;;5035816;28;20052;-71
2023/08/02 01:46:32;;;;;;;10.23;5.50;;;15.60;99.90;;;;;;5036255;28;20123;-71
2023/08/02 01:48:58;;;;;;;9.50;5.43;;;15.60;99.90;;;;;;5035643;28;20052;-71
2023/08/02 01:51:24;;;;;;;10.98;5.85;;;15.70;99.90;;;;;;5052453;28;20079;-71
2023/08/02 01:53:50;;;;;;;8.73;5.80;;;15.70;99.90;;;;;;5053323;28;20044;-71
2023/08/02 01:56:17;;;;;;;11.90;6.05;;;15.70;99.90;;;;;;5035037;28;20400;-71
2023/08/02 01:58:42;;;;;;;11.25;5.80;;;15.70;99.90;;;;;;5052676;28;20106;-71
2023/08/02 02:01:08;;;;;;;11.43;5.32;;;15.60;99.90;;;;;;5035335;28;20535;-71
2023/08/02 02:03:34;;;;;;;11.88;5.85;;;15.70;99.90;;;;;;5051968;28;20041;-71
2023/08/02 02:06:02;;;;;;;9.52;5.75;;;15.70;99.90;;;;;;5033714;28;20053;-71
2023/08/02 02:08:28;;;;;;;9.02;5.80;;;15.60;99.90;;;;;;5053301;28;20045;-71
2023/08/02 02:10:54;;;;;;;13.95;5.00;;;15.70;99.90;;;;;;5052067;28;20049;-71
2023/08/02 02:13:23;;;;;;;13.05;5.38;;;15.70;99.90;;;;;;5035221;28;20069;-71
2023/08/02 02:15:48;;;;;;;10.80;5.07;;;15.70;99.90;;;;;;5035037;28;20064;-71
2023/08/02 02:18:14;;;;;;;9.77;4.63;;;15.70;99.90;;;;;;5034234;28;20132;-72
2023/08/02 02:20:43;;;;;;;9.80;5.10;;;15.70;99.90;;;;;;5051832;28;20400;-71
2023/08/02 02:23:09;;;;;;;8.20;4.90;;;15.70;99.90;;;;;;5035536;28;20048;-71
2023/08/02 02:25:34;;;;;;;11.00;5.40;;;15.60;99.90;;;;;;5037521;28;20049;-72
2023/08/02 02:28:00;;;;;;;8.50;4.72;;;15.60;99.90;;;;;;5051129;28;20055;-71
2023/08/02 02:30:26;;;;;;;11.82;4.82;;;15.70;99.90;;;;;;5052726;28;20041;-72
2023/08/02 02:32:52;;;;;;;8.00;4.70;;;15.70;99.90;;;;;;5051818;28;20088;-71
2023/08/02 02:35:18;;;;;;;8.05;5.10;;;15.60;99.90;;;;;;5051399;28;20052;-71
2023/08/02 02:37:44;;;;;;;9.35;4.70;;;15.60;99.90;;;;;;5051152;28;20049;-71
2023/08/02 02:40:10;;;;;;;7.63;4.47;;;15.70;99.90;;;;;;5051535;28;20103;-71
2023/08/02 02:42:41;;;;;;;8.70;4.75;;;15.70;99.90;;;;;;5052459;28;20052;-71
2023/08/02 02:45:08;;;;;;;7.72;4.85;;;15.70;99.90;;;;;;5051343;28;20560;-71
2023/08/02 02:47:34;;;;;;;9.68;4.78;;;15.80;99.90;;;;;;5050836;28;20409;-71
2023/08/02 02:50:00;;;;;;;9.00;4.50;;;15.70;99.90;;;;;;5051191;28;20051;-71
2023/08/02 02:52:26;;;;;;;11.00;4.32;;;15.80;99.90;;;;;;5049832;28;20056;-70
2023/08/02 02:54:51;;;;;;;10.40;4.57;;;15.80;99.90;;;;;;5050316;28;20052;-71
2023/08/02 02:57:18;;;;;;;8.90;4.75;;;15.80;99.90;;;;;;5056269;28;20044;-70
2023/08/02 02:59:47;;;;;;;8.20;4.70;;;15.80;99.90;;;;;;5058025;28;20086;-70
2023/08/02 03:02:12;;;;;;;10.05;4.65;;;17.10;99.90;;;;;;5057872;28;20179;-70
2023/08/02 03:04:38;;;;;;;7.70;4.32;;;15.70;99.90;;;;;;5057854;28;20127;-70
2023/08/02 03:07:04;;;;;;;10.40;5.32;;;15.70;99.90;;;;;;5056625;28;20052;-71
2023/08/02 03:09:33;;;;;;;9.40;4.72;;;15.70;99.90;;;;;;5058006;28;20060;-70
2023/08/02 03:11:58;;;;;;;9.20;5.10;;;16.70;99.90;;;;;;5058774;28;20050;-70
2023/08/02 03:14:27;;;;;;;8.63;4.50;;;15.70;99.90;;;;;;5057418;28;20116;-70
2023/08/02 03:16:53;;;;;;;10.50;5.25;;;15.70;99.90;;;;;;5057497;28;20179;-70
2023/08/02 03:19:18;;;;;;;12.07;4.88;;;16.50;99.90;;;;;;5057728;28;20055;-70
2023/08/02 03:21:44;;;;;;;9.55;4.80;;;15.70;99.90;;;;;;5056371;28;20044;-70
2023/08/02 03:24:10;;;;;;;8.68;4.60;;;15.60;99.90;;;;;;5058041;28;20041;-70
2023/08/02 03:26:38;;;;;;;12.38;5.13;;;15.60;99.90;;;;;;5057112;28;20053;-71
2023/08/02 03:29:07;;;;;;;13.20;6.43;;;15.60;99.90;;;;;;5057972;28;20128;-71
2023/08/02 03:31:36;;;;;;;12.57;4.85;;;15.60;99.90;;;;;;5056614;28;20044;-70
2023/08/02 03:34:02;;;;;;;13.43;5.50;;;15.60;99.90;;;;;;5058999;28;20044;-70
2023/08/02 03:36:28;;;;;;;12.80;5.32;;;15.60;99.90;;;;;;5058274;28;20037;-70
2023/08/02 03:38:53;;;;;;;11.75;4.65;;;15.60;99.90;;;;;;5058681;28;20095;-70
2023/08/02 03:41:19;;;;;;;11.77;4.85;;;15.60;99.90;;;;;;5057326;28;20512;-70
2023/08/02 03:43:45;;;;;;;12.18;5.32;;;15.60;99.90;;;;;;5056478;28;20459;-71
2023/08/02 03:46:11;;;;;;;10.95;5.90;;;15.60;99.90;;;;;;5058553;28;20045;-71
2023/08/02 03:48:37;;;;;;;11.63;5.00;;;15.70;99.90;;;;;;5056917;28;20140;-70
2023/08/02 03:51:02;;;;;;;7.95;4.80;;;15.60;99.90;;;;;;5056695;28;20120;-70
2023/08/02 03:53:31;;;;;;;10.77;5.15;;;15.70;99.90;;;;;;5058752;28;20481;-70
2023/08/02 03:56:00;;;;;;;10.43;5.18;;;15.70;99.90;;;;;;5057738;28;20048;-71
2023/08/02 03:58:26;;;;;;;15.25;5.25;;;15.70;99.90;;;;;;5043963;28;20095;-70
2023/08/02 04:00:52;;;;;;;12.43;5.20;;;15.70;99.90;;;;;;5057456;28;20115;-70
2023/08/02 04:03:18;;;;;;;12.95;5.07;;;15.80;99.90;;;;;;5057906;28;20053;-71
2023/08/02 04:05:44;;;;;;;15.02;5.80;;;15.80;99.90;;;;;;5056970;28;20084;-70
2023/08/02 04:08:10;;;;;;;15.77;5.47;;;15.80;99.90;;;;;;5055428;28;20041;-71
2023/08/02 04:10:37;;;;;;;13.07;5.25;;;15.70;99.90;;;;;;5054237;28;20118;-71
2023/08/02 04:13:03;;;;;;;15.80;5.75;;;15.70;99.90;;;;;;5055278;28;20041;-70
2023/08/02 04:15:37;;;;;;;11.73;4.93;;;15.70;99.90;;;;;;5055417;28;20128;-70
2023/08/02 04:18:06;;;;;;;9.30;4.72;;;15.70;99.90;;;;;;5054403;28;20083;-70
2023/08/02 04:20:38;;;;;;;12.23;5.80;;;15.80;99.90;;;;;;5054891;28;20115;-70
2023/08/02 04:23:04;;;;;;;13.35;5.22;;;15.80;99.90;;;;;;5053829;28;20151;-70
2023/08/02 04:25:32;;;;;;;12.82;5.13;;;15.70;99.90;;;;;;5043903;28;20056;-70
2023/08/02 04:27:58;;;;;;;15.93;5.85;;;15.80;99.90;;;;;;5034774;28;20049;-70
2023/08/02 04:30:24;;;;;;;20.77;5.45;;;15.70;99.90;;;;;;5016514;28;20053;-70
2023/08/02 04:32:50;;;;;;;13.40;5.47;;;15.80;99.90;;;;;;5015962;28;20050;-71
2023/08/02 04:35:16;;;;;;;14.52;5.32;;;15.80;99.90;;;;;;5017366;28;20120;-70
2023/08/02 04:37:42;;;;;;;12.93;5.25;;;15.70;99.90;;;;;;5034384;28;20112;-71
2023/08/02 04:40:09;;;;;;;15.40;5.63;;;15.80;99.90;;;;;;5016430;28;20038;-71
2023/08/02 04:42:35;;;;;;;14.45;5.47;;;15.70;99.90;;;;;;5034753;28;20117;-71
2023/08/02 04:45:00;;;;;;;18.45;5.50;;;15.70;99.90;;;;;;5016549;28;20472;-71
2023/08/02 04:47:26;;;;;;;12.43;4.65;;;15.70;99.90;;;;;;5034437;28;20137;-71
2023/08/02 04:49:53;;;;;;;14.80;5.72;;;15.70;99.90;;;;;;5016524;28;20052;-71
2023/08/02 04:52:19;;;;;;;12.13;5.22;;;15.60;99.90;;;;;;5034112;28;20095;-70
2023/08/02 04:54:45;;;;;;;14.07;5.38;;;15.60;99.90;;;;;;5034294;28;20033;-70
2023/08/02 04:57:11;;;;;;;10.40;5.40;;;15.70;99.90;;;;;;5034784;28;20097;-70
2023/08/02 04:59:36;;;;;;;15.07;6.00;;;15.70;99.90;;;;;;5033230;28;20045;-71
2023/08/02 05:02:02;;;;;;;11.45;5.38;;;15.70;99.90;;;;;;5016222;28;20041;-71
2023/08/02 05:04:28;;;;;;;11.48;5.43;;;15.70;99.90;;;;;;5016003;28;20457;-70
2023/08/02 05:06:54;;;;;;;14.40;5.72;;;15.60;99.90;;;;;;5032536;28;20516;-70
2023/08/02 05:09:20;;;;;;;14.73;6.07;;;15.60;99.90;;;;;;5032829;28;20045;-70
2023/08/02 05:11:46;;;;;;;17.60;6.28;;;15.60;99.90;;;;;;5015978;28;20053;-71
2023/08/02 05:14:12;;;;;;;14.95;6.13;;;15.60;99.90;;;;;;5015737;28;20045;-70
2023/08/02 05:16:41;;;;;;;13.98;6.45;;;15.50;99.90;;;;;;5033617;28;20076;-70
2023/08/02 05:19:06;;;;;;;15.40;7.28;;;15.50;99.90;;;;;;5015413;28;20080;-71
2023/08/02 05:21:33;;;;;;;16.38;6.13;;;15.60;99.90;;;;;;5015156;28;20089;-71
2023/08/02 05:23:58;;;;;;;15.65;6.25;;;15.60;99.90;;;;;;5033747;28;20049;-71
2023/08/02 05:26:24;;;;;;;11.70;6.22;;;15.60;99.90;;;;;;5047161;28;20122;-71
2023/08/02 05:28:50;;;;;;;16.08;7.10;;;15.70;99.90;;;;;;5034810;28;20405;-71
2023/08/02 05:31:15;;;;;;;14.52;6.40;;;15.70;99.90;;;;;;5053247;28;20099;-71
2023/08/02 05:33:41;;;;;;;14.57;6.80;;;15.70;99.90;;;;;;5053347;28;20041;-71
2023/08/02 05:36:07;;;;;;;16.83;6.93;;;15.70;99.90;;;;;;5035058;28;20044;-71
2023/08/02 05:38:38;;;;;;;13.57;6.65;;;15.60;99.90;;;;;;5053335;28;20041;-71
2023/08/02 05:41:03;;;;;;;13.80;6.53;;;15.70;99.90;;;;;;5016737;28;20052;-70
2023/08/02 05:43:29;;;;;;;15.55;6.45;;;15.80;99.90;;;;;;5015122;28;20049;-71
2023/08/02 05:45:56;;;;;;;14.57;7.00;;;15.80;99.90;;;;;;5033565;28;20479;-71
2023/08/02 05:48:24;;;;;;;14.57;6.68;;;15.70;99.90;;;;;;5032627;28;20511;-71
2023/08/02 05:50:50;;;;;;;18.80;6.43;;;15.80;99.90;;;;;;5033690;28;20476;-71
2023/08/02 05:53:16;;;;;;;19.13;7.60;;;15.90;99.90;;;;;;5053102;28;20099;-71
2023/08/02 05:55:42;;;;;;;15.10;7.82;;;15.80;99.90;;;;;;5052388;28;20119;-71
2023/08/02 05:58:08;;;;;;;17.25;8.23;;;15.80;99.90;;;;;;5053216;28;20091;-71
2023/08/02 06:00:34;;;;;;;16.10;8.00;;;15.80;99.90;;;;;;5052868;28;20048;-71
2023/08/02 06:02:59;;;;;;;15.43;8.23;;;15.90;99.90;;;;;;5052301;28;20049;-71
2023/08/02 06:05:25;;;;;;;12.35;7.38;;;16.00;99.90;;;;;;5052845;28;20119;-71
2023/08/02 06:07:54;;;;;;;12.80;7.63;;;16.10;99.90;;;;;;5034128;28;20044;-70
2023/08/02 06:10:30;;;;;;;;;;;;;;;;;;;;;
2023/08/02 06:12:55;;;;;;;14.98;7.53;;;16.20;99.90;;;;;;5046848;28;20448;-70
2023/08/02 06:15:21;;;;;;;11.00;7.40;;;16.20;99.90;;;;;;5034700;28;20063;-71
2023/08/02 06:17:50;;;;;;;12.63;7.32;;;16.10;99.90;;;;;;5034152;28;20384;-72
2023/08/02 06:20:16;;;;;;;11.45;6.72;;;16.20;99.90;;;;;;5052995;28;20102;-72
2023/08/02 06:22:44;;;;;;;16.92;6.63;;;16.20;99.90;;;;;;5034836;28;20049;-71
2023/08/02 06:25:10;;;;;;;15.25;6.45;;;16.20;99.90;;;;;;5050820;28;20056;-71
2023/08/02 06:27:39;;;;;;;12.10;6.43;;;16.20;99.90;;;;;;5052721;28;20052;-71
2023/08/02 06:30:05;;;;;;;12.18;6.93;;;16.20;99.90;;;;;;5034240;28;20045;-71
2023/08/02 06:32:31;;;;;;;16.75;6.82;;;16.10;99.90;;;;;;5033419;28;20086;-71
2023/08/02 06:34:57;;;;;;;11.55;5.90;;;16.10;99.90;;;;;;5034321;28;20044;-71
2023/08/02 06:37:23;;;;;;;13.07;6.22;;;16.10;99.90;;;;;;5033986;28;20068;-70
2023/08/02 06:39:49;;;;;;;17.02;6.38;;;16.10;99.90;;;;;;5051595;28;20087;-71
2023/08/02 06:42:14;;;;;;;16.65;6.28;;;16.00;99.90;;;;;;5035145;28;20044;-71
2023/08/02 06:44:40;;;;;;;14.52;6.25;;;16.00;99.90;;;;;;5051484;28;20041;-71
2023/08/02 06:47:06;;;;;;;14.80;6.68;;;16.00;99.90;;;;;;5052431;28;20064;-70
2023/08/02 06:49:34;;;;;;;16.52;6.88;;;16.10;99.90;;;;;;5035491;28;20080;-71
2023/08/02 06:52:00;;;;;;;16.83;7.57;;;16.00;99.90;;;;;;5045549;28;20142;-71
2023/08/02 06:54:26;;;;;;;14.30;6.38;;;16.00;99.90;;;;;;5037151;28;20473;-71
2023/08/02 06:56:52;;;;;;;12.48;6.00;;;16.00;99.90;;;;;;5051650;28;20045;-71
2023/08/02 06:59:18;;;;;;;13.20;5.85;;;16.00;99.90;;;;;;5051469;28;20041;-71
2023/08/02 07:01:46;;;;;;;15.20;6.05;;;16.10;99.90;;;;;;5052439;28;20091;-71
2023/08/02 07:04:11;;;;;;;12.63;6.00;;;16.10;99.90;;;;;;5052535;28;20123;-71
2023/08/02 07:06:37;;;;;;;11.40;5.15;;;16.10;99.90;;;;;;5051525;28;20041;-70
2023/08/02 07:09:03;;;;;;;10.65;5.20;;;16.20;99.90;;;;;;5051656;28;20052;-71
2023/08/02 07:11:29;;;;;;;10.75;5.65;;;16.30;99.90;;;;;;5051734;28;20103;-71
2023/08/02 07:13:54;;;;;;;11.23;5.80;;;16.30;99.90;;;;;;5051318;28;20041;-71
2023/08/02 07:16:20;;;;;;;10.88;5.32;;;16.20;99.90;;;;;;5034318;28;20032;-70
2023/08/02 07:18:46;;;;;;;11.35;5.55;;;16.10;99.90;;;;;;5051930;28;20041;-71
2023/08/02 07:21:12;;;;;;;11.25;5.60;;;16.10;99.90;;;;;;5034090;28;20048;-71
2023/08/02 07:23:40;;;;;;;11.32;4.75;;;16.10;99.90;;;;;;5051937;28;20044;-71
2023/08/02 07:26:07;;;;;;;11.63;5.25;;;16.20;99.90;;;;;;5052361;28;20124;-70
2023/08/02 07:28:32;;;;;;;12.48;5.85;;;16.20;99.90;;;;;;5035469;28;20056;-71
2023/08/02 07:31:09;;;;;;;10.90;4.80;;;16.30;99.90;;;;;;5035887;28;20044;-70
2023/08/02 07:33:35;;;;;;;11.15;5.20;;;16.30;99.90;;;;;;5051818;28;20094;-71
2023/08/02 07:36:04;;;;;;;10.30;5.15;;;16.30;99.90;;;;;;5051197;28;20052;-71
2023/08/02 07:38:33;;;;;;;8.60;4.25;;;16.30;99.90;;;;;;5034498;28;20092;-71
2023/08/02 07:41:03;;;;;;;11.25;5.22;;;16.20;99.90;;;;;;5033327;28;20057;-71
2023/08/02 07:43:29;;;;;;;11.35;5.28;;;16.20;99.90;;;;;;5054817;28;20037;-70
2023/08/02 07:46:04;;;;;;;8.45;5.43;;;16.20;99.90;;;;;;5038033;28;20057;-71
2023/08/02 07:48:30;;;;;;;9.93;4.75;;;16.10;99.90;;;;;;5054958;28;20160;-71
2023/08/02 07:50:56;;;;;;;9.15;5.07;;;16.10;99.90;;;;;;5037352;28;20262;-70
2023/08/02 07:53:22;;;;;;;12.93;5.97;;;15.90;99.90;;;;;;5055209;28;20567;-71
2023/08/02 07:55:48;;;;;;;10.18;5.20;;;15.80;99.90;;;;;;5036427;28;20060;-70
2023/08/02 07:58:16;;;;;;;10.43;4.35;;;15.70;99.90;;;;;;5037854;28;20052;-70
2023/08/02 08:00:44;;;;;;;14.57;5.30;;;16.60;99.90;;;;;;5055387;28;20048;-70
2023/08/02 08:03:10;;;;;;;11.32;4.70;;;15.50;99.90;;;;;;5054310;28;20048;-70
2023/08/02 08:05:36;;;;;;;8.98;5.03;;;15.50;99.90;;;;;;5055144;28;20045;-70
2023/08/02 08:08:01;;;;;;;9.50;4.43;;;15.50;99.90;;;;;;5037743;28;20068;-70
2023/08/02 08:10:27;;;;;;;10.32;4.63;;;15.50;99.90;;;;;;5054280;28;20047;-71
2023/08/02 08:12:56;;;;;;;8.90;4.68;;;15.40;99.90;;;;;;5036998;28;20046;-70
2023/08/02 08:15:22;;;;;;;8.63;5.28;;;15.40;99.90;;;;;;5036888;28;20112;-70
2023/08/02 08:17:47;;;;;;;10.88;4.68;;;15.40;99.90;;;;;;5054001;28;20124;-70
2023/08/02 08:20:19;;;;;;;9.43;5.20;;;15.40;99.90;;;;;;5067580;28;20084;-70
2023/08/02 08:22:47;;;;;;;10.13;5.05;;;15.40;99.90;;;;;;5037738;28;20087;-70
2023/08/02 08:25:12;;;;;;;9.98;4.25;;;15.40;99.90;;;;;;5037364;28;20057;-70
2023/08/02 08:27:38;;;;;;;10.15;4.30;;;15.40;99.90;;;;;;5053612;28;20477;-70
2023/08/02 08:30:05;;;;;;;8.45;4.38;;;15.40;99.90;;;;;;5052137;28;20443;-70
2023/08/02 08:32:31;;;;;;;6.90;4.07;;;15.40;99.90;;;;;;5054930;28;20091;-70
2023/08/02 08:35:01;;;;;;;8.55;4.20;;;15.30;99.90;;;;;;5053702;28;20123;-70
2023/08/02 08:37:27;;;;;;;10.00;3.47;;;15.30;99.90;;;;;;5053115;28;20130;-70
2023/08/02 08:39:53;;;;;;;9.35;4.00;;;15.30;99.90;;;;;;5052882;28;20422;-70
2023/08/02 08:42:19;;;;;;;8.60;3.78;;;15.30;99.90;;;;;;5054857;28;20048;-70
2023/08/02 08:44:46;;;;;;;9.27;4.10;;;15.20;99.90;;;;;;5053779;28;20041;-70
2023/08/02 08:47:16;;;;;;;7.68;3.80;;;15.20;99.90;;;;;;5054420;28;20045;-70
2023/08/02 08:49:46;;;;;;;6.97;3.53;;;15.20;99.90;;;;;;5053977;28;20057;-71
2023/08/02 08:52:14;;;;;;;7.53;4.25;;;15.20;99.90;;;;;;5052407;28;20048;-70
2023/08/02 08:54:42;;;;;;;8.68;3.67;;;15.20;99.90;;;;;;5053737;28;20076;-70
2023/08/02 08:57:12;;;;;;;6.80;3.08;;;15.30;99.90;;;;;;5054711;28;20084;-70
2023/08/02 08:59:41;;;;;;;9.27;3.72;;;15.30;99.90;;;;;;5052959;28;20041;-70
2023/08/02 09:02:09;;;;;;;8.80;3.50;;;15.40;99.90;;;;;;5053271;28;20049;-70
2023/08/02 09:04:35;;;;;;;5.55;3.35;;;15.40;99.90;;;;;;5053161;28;20053;-71
2023/08/02 09:07:01;;;;;;;7.68;3.80;;;15.40;99.90;;;;;;5052344;28;20378;-71
2023/08/02 09:09:27;;;;;;;5.75;3.38;;;15.40;99.90;;;;;;5054099;28;20047;-71
2023/08/02 09:11:55;;;;;;;8.25;3.33;;;15.40;99.90;;;;;;5051841;28;20053;-71
2023/08/02 09:14:25;;;;;;;8.05;3.60;;;15.30;99.90;;;;;;5052102;28;20047;-70
2023/08/02 09:16:59;;;;;;;5.78;3.55;;;15.40;99.90;;;;;;5052403;28;20094;-70
2023/08/02 09:19:27;;;;;;;7.35;3.70;;;15.40;99.90;;;;;;5053228;28;20048;-70
2023/08/02 09:22:12;;;;;;;6.93;3.40;;;15.30;99.90;;;;;;5053791;28;20041;-71
2023/08/02 09:24:40;;;;;;;6.55;3.00;;;15.30;99.90;;;;;;5053557;28;20049;-71
2023/08/02 09:27:11;;;;;;;5.95;3.30;;;15.40;99.90;;;;;;5051549;28;20082;-71
2023/08/02 09:29:49;;;;;;;6.50;3.53;;;15.40;99.90;;;;;;5053470;28;20562;-70
2023/08/02 09:32:20;;;;;;;7.32;3.80;;;15.50;99.90;;;;;;5053652;28;20043;-71
2023/08/02 09:34:49;;;;;;;5.13;3.83;;;15.50;99.90;;;;;;5051692;28;20517;-70
2023/08/02 09:37:16;;;;;;;6.03;4.45;;;15.50;99.90;;;;;;5052661;28;20127;-70
2023/08/02 09:39:52;;;;;;;7.88;5.00;;;15.60;99.90;;;;;;5052074;28;20089;-71
2023/08/02 09:42:21;;;;;;;7.28;4.03;;;15.60;99.90;;;;;;5051355;28;20045;-71
2023/08/02 09:45:04;;;;;;;6.72;4.72;;;15.60;99.90;;;;;;5052124;28;20037;-70
2023/08/02 09:47:30;;;;;;;7.43;5.15;;;15.50;99.90;;;;;;5052341;28;20052;-71
2023/08/02 09:50:06;;;;;;;7.07;4.47;;;15.50;99.90;;;;;;5051525;28;20051;-71
2023/08/02 09:52:32;;;;;;;;;;;15.50;99.90;;;;;;5052382;28;20099;-70
2023/08/02 09:54:59;;;;;;;7.00;5.00;;;15.40;99.90;;;;;;5052738;28;19924;-71
2023/08/02 09:57:28;;;;;;;7.18;5.30;;;15.40;99.90;;;;;;5052980;28;20120;-71
2023/08/02 09:59:55;;;;;;;7.35;4.78;;;15.50;99.90;;;;;;5051817;28;20056;-70
2023/08/02 10:02:25;;;;;;;8.70;5.90;;;15.50;99.90;;;;;;5051152;28;20129;-70
2023/08/02 10:04:59;;;;;;;7.72;5.30;;;15.60;99.90;;;;;;5052785;28;20040;-71
2023/08/02 10:07:43;;;;;;;8.27;5.07;;;15.60;99.90;;;;;;5050798;28;20049;-71
2023/08/02 10:10:29;;;;;;;6.65;5.18;;;15.70;99.90;;;;;;5051117;28;20049;-71
2023/08/02 10:13:17;;;;;;;7.72;5.28;;;15.70;99.90;;;;;;5052858;28;20047;-71
2023/08/02 10:15:46;;;;;;;7.18;4.70;;;15.70;99.90;;;;;;5051774;28;20080;-71
2023/08/02 10:18:12;;;;;;;6.28;4.47;;;15.70;99.90;;;;;;5051326;28;20067;-71
2023/08/02 10:20:42;;;;;;;5.80;4.55;;;15.80;99.90;;;;;;5052423;28;20041;-71
2023/08/02 10:23:10;;;;;;;6.25;4.28;;;15.80;99.90;;;;;;5052129;28;20049;-71
2023/08/02 10:25:36;;;;;;;6.15;4.10;;;15.80;99.90;;;;;;5052457;28;20045;-71
2023/08/02 10:28:03;;;;;;;5.03;3.70;;;15.80;99.90;;;;;;5052510;28;20049;-71
2023/08/02 10:30:31;;;;;;;5.03;3.70;;;15.80;99.90;;;;;;5051783;28;20127;-71
2023/08/02 10:33:20;;;;;;;5.90;3.63;;;15.90;99.90;;;;;;5034268;28;20041;-71
2023/08/02 10:36:03;;;;;;;5.43;3.42;;;15.90;99.90;;;;;;5034627;28;20048;-72
2023/08/02 10:38:43;;;;;;;5.07;3.15;;;15.90;99.90;;;;;;5051835;28;20131;-71
2023/08/02 10:41:21;;;;;;;4.45;2.85;;;16.00;99.90;;;;;;5034965;28;20068;-71
2023/08/02 10:43:53;;;;;;;4.00;3.08;;;16.00;99.90;;;;;;5051593;28;20055;-71
2023/08/02 10:46:24;;;;;;;4.25;2.45;;;16.00;99.90;;;;;;5034625;28;20045;-72
2023/08/02 10:48:51;;;;;;;3.70;2.30;;;16.00;99.90;;;;;;5034506;28;20071;-71
2023/08/02 10:51:30;;;;;;;3.40;2.35;;;16.00;99.90;;;;;;5033927;28;20056;-71
2023/08/02 10:54:25;;;;;;;3.55;2.25;;;16.00;99.90;;;;;;5034237;28;20106;-71
2023/08/02 10:56:51;;;;;;;3.13;2.00;;;16.00;99.90;;;;;;5051531;28;20425;-71
2023/08/02 10:59:35;;;;;;;3.88;2.28;;;15.90;99.90;;;;;;5051498;28;20406;-71
2023/08/02 11:02:02;;;;;;;3.28;2.10;;;15.90;99.90;;;;;;5034831;28;20136;-71
2023/08/02 11:04:30;;;;;;;3.58;2.08;;;15.90;99.90;;;;;;5034478;28;20051;-71
2023/08/02 11:07:09;;;;;;;3.78;1.90;;;15.90;99.90;;;;;;5051079;28;20037;-72
2023/08/02 11:09:35;;;;;;;2.72;1.70;;;16.00;99.90;;;;;;5051879;28;20041;-71
2023/08/02 11:12:18;;;;;;;3.30;1.75;;;16.10;99.90;;;;;;5051137;28;20052;-71
2023/08/02 11:14:46;;;;;;;3.55;1.98;;;16.10;99.90;;;;;;5051750;28;20063;-71
2023/08/02 11:17:17;;;;;;;2.90;1.92;;;16.30;99.90;;;;;;5052740;28;20124;-71
2023/08/02 11:19:50;;;;;;;3.22;2.30;;;16.50;99.90;;;;;;5054376;28;20110;-71
2023/08/02 11:22:17;;;;;;;3.40;2.00;;;16.50;99.90;;;;;;5056120;28;20041;-71
2023/08/02 11:24:51;;;;;;;3.45;2.10;;;16.60;99.90;;;;;;5055751;28;20041;-71
2023/08/02 11:27:26;;;;;;;3.13;2.33;;;16.80;99.90;;;;;;4998114;28;20536;-71
2023/08/02 11:30:02;;;;;;;3.30;2.30;;;16.90;99.90;;;;;;4998216;28;20045;-71
2023/08/02 11:32:28;;;;;;;;;;;17.00;99.90;;;;;;5016985;28;20042;-71
2023/08/02 11:34:54;;;;;;;3.37;2.00;;;17.20;99.90;;;;;;5010202;28;20282;-71
2023/08/02 11:37:20;;;;;;;3.55;2.30;;;17.70;99.90;;;;;;5018170;28;20037;-71
2023/08/02 11:39:54;;;;;;;3.08;2.10;;;18.10;99.90;;;;;;5035575;28;20125;-71
2023/08/02 11:42:19;;;;;;;2.97;1.90;;;18.40;99.90;;;;;;5017810;28;20503;-71
2023/08/02 11:44:48;;;;;;;2.80;1.80;;;18.60;99.90;;;;;;5035402;28;20041;-71
2023/08/02 11:47:14;;;;;;;2.95;2.05;;;18.60;99.90;;;;;;5017421;28;20042;-71
2023/08/02 11:49:56;;;;;;;3.20;2.03;;;18.60;99.90;;;;;;5017236;28;20029;-71
2023/08/02 11:52:25;;;;;;;3.60;1.90;;;18.50;99.90;;;;;;5018176;28;20103;-71
2023/08/02 11:54:52;;;;;;;4.78;2.10;;;18.60;99.90;;;;;;5016690;28;20041;-71
2023/08/02 11:57:20;;;;;;;3.70;2.15;;;18.50;99.90;;;;;;5035735;28;20053;-71
2023/08/02 11:59:47;;;;;;;3.17;2.30;;;18.30;99.90;;;;;;5035320;28;20087;-72
2023/08/02 12:02:30;;;;;;;3.60;2.47;;;18.30;99.90;;;;;;5017425;28;20080;-71
2023/08/02 12:04:56;;;;;;;3.65;2.35;;;18.20;99.90;;;;;;5016874;28;20134;-71
2023/08/02 12:07:30;;;;;;;4.15;2.80;;;18.20;99.90;;;;;;5017686;28;20041;-72
2023/08/02 12:09:56;;;;;;;3.78;3.00;;;18.10;99.90;;;;;;5015118;28;20054;-71
2023/08/02 12:12:26;;;;;;;4.82;2.95;;;18.10;99.90;;;;;;5017739;28;20058;-72
2023/08/02 12:14:52;;;;;;;4.63;3.65;;;18.20;99.90;;;;;;5034823;28;20103;-71
2023/08/02 12:17:20;;;;;;;4.90;3.60;;;18.50;99.90;;;;;;5034670;28;20041;-72
2023/08/02 12:19:46;;;;;;;4.40;3.72;;;19.00;99.90;;;;;;5017335;28;20050;-72
2023/08/02 12:22:13;;;;;;;4.30;3.63;;;19.30;99.90;;;;;;5034343;28;20049;-72
2023/08/02 12:24:39;;;;;;;4.78;3.50;;;19.60;99.90;;;;;;5016605;28;20481;-72
2023/08/02 12:27:14;;;;;;;4.38;3.00;;;19.80;99.90;;;;;;5016496;28;20057;-72
2023/08/02 12:29:42;;;;;;;5.23;2.97;;;20.20;99.90;;;;;;5032859;28;20053;-72
2023/08/02 12:32:27;;;;;;;5.28;2.80;;;20.40;99.90;;;;;;5017125;28;20057;-71
2023/08/02 12:34:54;;;;;;;3.40;2.63;;;20.30;99.90;;;;;;5034214;28;20030;-72
2023/08/02 12:37:19;;;;;;;3.63;2.22;;;20.20;99.90;;;;;;5033492;28;20053;-72
2023/08/02 12:39:45;;;;;;;5.18;2.42;;;20.10;99.90;;;;;;5016894;28;20068;-71
2023/08/02 12:42:14;;;;;;;5.78;2.10;;;20.20;99.90;;;;;;5017275;28;20038;-72
2023/08/02 12:44:41;;;;;;;4.15;1.50;;;20.40;99.90;;;;;;5016130;28;20045;-72
2023/08/02 12:47:07;;;;;;;6.75;1.88;;;20.70;99.90;;;;;;5034667;28;20033;-72